Meteo Giornale » Osservazioni meteo Stati Uniti (USA) » Hartford -Brainard

ore: 20:53 - Osservazioni Meteo Hartford -Brainard
Lat. 41° 44' N Lon. 72° 39' W Alt. 5 metri s.l.m.

sereno America/New_York

17 °C

Sereno

Temp. 24 Ore

17 °C

24 °C

Nord

0 Km/h

Dew point 14 °C

Umidità 82 %

Visibilità  10 Km

Il sole sorge alle ore 06:34

Il sole tramonta alle ore 18:54

Data e Ora Cielo e Fenomeni T °C DP °C Um. % Pres. hPa Vis. km Vento km/h
Oggi h: 20:53 sereno Sereno 17 14 82 1022 10 N 0
Oggi h: 19:53 sereno Sereno 18 13 72 1022 10 N 0
Oggi h: 18:53 sereno Sereno 20 11 56 1021 10 N 0
Oggi h: 16:53 poco_nuvoloso Poco Nuvoloso 24 8 35 1020 10 N 14.8
Oggi h: 14:53 sereno Sereno 24 9 38 1021 10 N 13
Oggi h: 13:53 nuvoloso Nuvoloso 24 10 41 1021 10 N 7.4
Oggi h: 12:53 nuvoloso Nuvoloso 23 11 46 1021 10 N 18.5
Oggi h: 11:53 sereno Sereno 22 10 46 1021 10 N/NO 14.8
Oggi h: 10:53 sereno Sereno 21 11 52 1021 10 N/NE 18.5
Oggi h: 09:53 sereno Sereno 19 10 55 1021 10 N 20.3
Oggi h: 08:53 nuvoloso Nuvoloso 18 11 63 1021 10 N 11.1
Oggi h: 08:18 molto_nuvoloso Molto Nuvoloso 18 11 63 1021 10 N 11.1
Oggi h: 07:53 nuvoloso Nuvoloso 17 11 67 1020 10 N 13
Oggi h: 05:53 sereno Sereno 17 13 77 1019 10 N 13
Oggi h: 04:53 sereno Sereno 18 14 77 1018 10 N 9.3
Oggi h: 02:53 sereno Sereno 21 14 64 1017 10 N 11.1
Oggi h: 01:53 nuvoloso Nuvoloso 21 17 77 1017 10 N 7.4
Oggi h: 00:53 poco_nuvoloso Poco Nuvoloso 22 17 73 1017 10 N/NO 11.1
Ieri h: 23:53 molto_nuvoloso Molto Nuvoloso 23 18 73 1017 10 N/NO 14.8
Ieri h: 22:53 sereno Sereno 23 18 73 1016 10 N/NO 9.3
Ieri h: 21:53 poco_nuvoloso Poco Nuvoloso 24 18 69 1016 10 N/NO 9.3